Aeroporto :
LOGIN :

Iscrizione | Disclaimer

   EN    FR    IT 

 










Sommario :    VFR   VFR Marginale   IFR   IFR Intensivo   IFR Molto Intensivo
Visibilità : 
Base nubi : 
>= 8 km
>= 3000ft
5 / 8 km
1000 / 3000 ft
1500m / 5 km
500 / 1000 ft
800 / 1500m
200 / 500 ft
< 800m
< 200 ft
Simboli :   Temporali  Nebbia  Neve Forte  Precipitazioni Forti  Vento > 20 kt
SIGMETs :   Varie  Temporali  Ghiacco  Turbolenza  Onda orograficha  Ceneri Vulcaniche






- Altitudine del aeroporto : 325 ft


LPCS - Cascais

ULTIMO METAR :
  • 131500Z 32009KT 280V350 9999 FEW016 24/10 Q1013

METARs OBSOLETI :
  • 131430Z VRB06KT 9999 FEW016 25/11 Q1013
  • 131400Z 35009KT 280V070 9999 FEW016 24/13 Q1013
  • 131330Z 31007KT 270V350 9999 FEW015 24/10 Q1013
  • 131300Z 01010KT 340V050 9999 FEW015 24/12 Q1013
  • 131230Z 01011KT 9999 FEW012 24/13 Q1013
  • 131200Z 01014KT 9999 FEW012 23/12 Q1013
  • 131130Z 01011KT 9999 FEW012 23/12 Q1013
  • 131100Z 01013KT 9999 FEW012 22/12 Q1014

TAF TAF LPCS
Valido dal 13 a 15 ore il 14 a 00 ore UTC


131400Z 1315/1324 34015KT 9999 FEW018
BECMG 1320/1322 34008KT



MetMap, La meteo Aeronautica in un colpo d'occhio ! - Copyright ORBIFLY Dicembre 2007 - Disclaimer

ORBIFLY MET'MAP TEAM :

Programmazione e sviluppo : Alexandra Zaïnal
Concezione : Baudouin d'Aumeries
Supporto tecnico e logistico : Manuel Goepfert
Aiuto : Marc-Olivier Méhu
Aiuto per la traduzione : Arnaldo La Scala




FONTI E CREDITI :

   NOAA